Star — ESCJ — position and weather

sailwx.info

Track history (hours):
 
Tides and Currents Weather Stations Pressure Air Temp Water Temp Dewpoint Dewpoint Depression Visibility Wind Speed Wind Dir Waves Ship Positions

Star

Last reported at 2018-Apr-23 06:58 UTC. Time now 2018-Apr-23 07:18 UTC.
Position N 59°27' E 024°46'.

Length 186 m; draft 5.9 m.

Type: Ship (hazmat cat B). MMSI: 276672000.

Date/timePositionNaut miles runAvg speedWind from/ knotsBaromVisibWave heightAir tempDewpointWater temp
2018-Apr-23 06:58N 59°27' E 024°46'0 0.0
2018-Apr-23 06:28N 59°27' E 024°46'714.6
2018-Apr-23 06:00N 59°33' E 024°42'1121.3
2018-Apr-23 05:31N 59°44' E 024°46'1122.9
2018-Apr-23 05:00N 59°55' E 024°52'1122.6
2018-Apr-23 04:30N 60°06' E 024°54'3 5.9
2018-Apr-23 04:00N 60°09' E 024°55'0 0.0
2018-Apr-23 03:30N 60°09' E 024°55'0 0.0
2018-Apr-23 03:00N 60°09' E 024°55'0 0.0
2018-Apr-23 02:30N 60°09' E 024°55'0 0.0
2018-Apr-23 02:00N 60°09' E 024°55'0 0.0
2018-Apr-23 01:30N 60°09' E 024°55'0 0.0
2018-Apr-23 01:00N 60°09' E 024°55'0 0.0
2018-Apr-23 00:30N 60°09' E 024°55'0 0.0
2018-Apr-23 00:00N 60°09' E 024°55'0 0.0
2018-Apr-22 23:30N 60°09' E 024°55'0 0.0
2018-Apr-22 23:00N 60°09' E 024°55'0 0.0
2018-Apr-22 22:30N 60°09' E 024°55'0 0.0
2018-Apr-22 22:00N 60°09' E 024°55'0 0.0
2018-Apr-22 21:30N 60°09' E 024°55'815.9
2018-Apr-22 21:01N 60°01' E 024°54'1223.3
2018-Apr-22 20:31N 59°50' E 024°50'1223.4
2018-Apr-22 20:01N 59°38' E 024°43'1122.0
2018-Apr-22 19:30N 59°28' E 024°47'1 1.8
2018-Apr-22 19:00N 59°27' E 024°46'0 0.0
2018-Apr-22 18:30N 59°27' E 024°46'714.9
2018-Apr-22 18:01N 59°34' E 024°42'1121.3
2018-Apr-22 17:31N 59°44' E 024°47'1122.5
2018-Apr-22 17:00N 59°55' E 024°52'1122.1
2018-Apr-22 16:30N 60°06' E 024°54'3 5.8
2018-Apr-22 16:00N 60°09' E 024°55'0 0.0
2018-Apr-22 15:31N 60°09' E 024°55'713.6
2018-Apr-22 15:01N 60°02' E 024°54'1122.4
2018-Apr-22 14:30N 59°51' E 024°51'1122.5
2018-Apr-22 14:01N 59°40' E 024°44'1121.7
2018-Apr-22 13:30N 59°29' E 024°46'3 5.6
2018-Apr-22 13:00N 59°27' E 024°46'0 0.0
2018-Apr-22 12:30N 59°27' E 024°46'815.5
2018-Apr-22 12:00N 59°34' E 024°41'1121.4
2018-Apr-22 11:31N 59°45' E 024°44'1122.3
2018-Apr-22 11:00N 59°55' E 024°53'1122.2
2018-Apr-22 10:31N 60°06' E 024°54'3 5.8
2018-Apr-22 10:00N 60°09' E 024°55'0 0.0
2018-Apr-22 09:30N 60°09' E 024°55'714.7
2018-Apr-22 09:01N 60°02' E 024°54'1122.8
2018-Apr-22 08:30N 59°51' E 024°49'1122.6
2018-Apr-22 08:01N 59°40' E 024°41'1122.6
2018-Apr-22 07:31N 59°29' E 024°46'2 4.1
2018-Apr-22 06:59N 59°27' E 024°46'0 0.0
2018-Apr-22 06:29N 59°27' E 024°46'816.5
2018-Apr-22 06:01N 59°34' E 024°42'1021.0
2018-Apr-22 05:31N 59°44' E 024°47'1122.2
2018-Apr-22 05:01N 59°55' E 024°52'1122.1
2018-Apr-22 04:31N 60°06' E 024°54'3 5.6
2018-Apr-22 03:59N 60°09' E 024°55'0 0.0
2018-Apr-22 03:29N 60°09' E 024°55'0 0.0
2018-Apr-22 02:59N 60°09' E 024°55'0 0.0
2018-Apr-22 02:29N 60°09' E 024°55'0 0.0
2018-Apr-22 01:59N 60°09' E 024°55'0 0.0
2018-Apr-22 01:29N 60°09' E 024°55'0 0.0
2018-Apr-22 00:59N 60°09' E 024°55'0 0.0
2018-Apr-22 00:29N 60°09' E 024°55'0 0.0
2018-Apr-21 23:59N 60°09' E 024°55'0 0.0
2018-Apr-21 23:26N 60°09' E 024°55'0 0.0
2018-Apr-21 22:59N 60°09' E 024°55'0 0.0
2018-Apr-21 22:29N 60°09' E 024°55'0 0.0
2018-Apr-21 21:59N 60°09' E 024°55'0 0.0
2018-Apr-21 21:30N 60°09' E 024°55'715.0
2018-Apr-21 21:01N 60°02' E 024°54'1122.4
2018-Apr-21 20:31N 59°51' E 024°50'1122.4
2018-Apr-21 20:01N 59°40' E 024°44'1121.1
2018-Apr-21 19:30N 59°29' E 024°46'3 5.4
2018-Apr-21 19:00N 59°27' E 024°46'0 0.0
2018-Apr-21 18:30N 59°27' E 024°46'816.4
2018-Apr-21 18:01N 59°34' E 024°41'1020.2
2018-Apr-21 17:30N 59°44' E 024°47'1122.6
2018-Apr-21 17:00N 59°55' E 024°52'1122.0
2018-Apr-21 16:30N 60°06' E 024°54'3 5.6
2018-Apr-21 15:59N 60°09' E 024°55'0 0.0
2018-Apr-21 15:30N 60°09' E 024°55'714.7
2018-Apr-21 15:01N 60°02' E 024°54'1122.7
2018-Apr-21 14:31N 59°50' E 024°51'1122.9
2018-Apr-21 14:01N 59°40' E 024°44'1121.3
2018-Apr-21 13:30N 59°29' E 024°46'2 4.4
2018-Apr-21 12:59N 59°27' E 024°46'0 0.0
2018-Apr-21 12:29N 59°27' E 024°46'816.0
2018-Apr-21 12:00N 59°34' E 024°42'1121.1
2018-Apr-21 11:30N 59°44' E 024°47'1122.4
2018-Apr-21 11:00N 59°55' E 024°52'1122.3
2018-Apr-21 10:31N 60°06' E 024°54'3 5.3
2018-Apr-21 09:59N 60°09' E 024°55'0 0.1
2018-Apr-21 09:29N 60°09' E 024°55'816.0
2018-Apr-21 09:00N 60°01' E 024°54'1122.8
2018-Apr-21 08:30N 59°50' E 024°50'1122.6
2018-Apr-21 08:01N 59°39' E 024°44'1121.0
2018-Apr-21 07:31N 59°29' E 024°46'2 4.1
2018-Apr-21 07:00N 59°27' E 024°46'0 0.0
2018-Apr-21 06:30N 59°27' E 024°46'816.4
2018-Apr-21 06:00N 59°34' E 024°41'1224.4
2018-Apr-21 05:31N 59°46' E 024°45'1224.9
2018-Apr-21 05:01N 59°58' E 024°54'1121.3
2018-Apr-21 04:31N 60°09' E 024°54'0 0.7
2018-Apr-21 03:59N 60°09' E 024°55'0 0.0
2018-Apr-21 03:29N 60°09' E 024°55'0 0.0
2018-Apr-21 02:59N 60°09' E 024°55'0 0.0
2018-Apr-21 02:29N 60°09' E 024°55'0 0.0
2018-Apr-21 01:59N 60°09' E 024°55'0 0.0
2018-Apr-21 01:29N 60°09' E 024°55'0 0.0
2018-Apr-21 00:59N 60°09' E 024°55'0 0.0
2018-Apr-21 00:29N 60°09' E 024°55'0 0.0
2018-Apr-20 23:59N 60°09' E 024°55'0 0.0
2018-Apr-20 23:29N 60°09' E 024°55'0 0.0
2018-Apr-20 22:59N 60°09' E 024°55'0 0.0
2018-Apr-20 22:29N 60°09' E 024°55'0 0.0
2018-Apr-20 21:59N 60°09' E 024°55'0 0.0
2018-Apr-20 21:29N 60°09' E 024°55'714.1
2018-Apr-20 21:01N 60°02' E 024°54'1122.6
2018-Apr-20 20:31N 59°51' E 024°50'1122.7
2018-Apr-20 20:00N 59°40' E 024°44'1121.8
2018-Apr-20 19:31N 59°29' E 024°46'3 5.1
2018-Apr-20 19:00N 59°27' E 024°46'0 0.0
2018-Apr-20 18:30N 59°27' E 024°46'714.9
2018-Apr-20 18:01N 59°34' E 024°42'1121.4
2018-Apr-20 17:30N 59°44' E 024°47'1122.9
2018-Apr-20 17:00N 59°55' E 024°52'1122.0
2018-Apr-20 16:30N 60°06' E 024°54'3 5.5
2018-Apr-20 16:00N 60°09' E 024°55'0 0.0
2018-Apr-20 15:30N 60°09' E 024°55'713.2
2018-Apr-20 15:00N 60°02' E 024°54'1122.4
2018-Apr-20 14:30N 59°51' E 024°51'1122.6
2018-Apr-20 14:00N 59°40' E 024°44'1121.5
2018-Apr-20 13:30N 59°30' E 024°46'3 5.6
2018-Apr-20 12:58N 59°27' E 024°46'0 0.0
2018-Apr-20 12:30N 59°27' E 024°46'815.7
2018-Apr-20 12:00N 59°34' E 024°41'1122.1
2018-Apr-20 11:31N 59°45' E 024°47'1122.6
2018-Apr-20 11:00N 59°56' E 024°52'1122.0
2018-Apr-20 10:30N 60°07' E 024°54'2 4.4
2018-Apr-20 09:59N 60°09' E 024°55'0 0.0
2018-Apr-20 09:29N 60°09' E 024°55'714.4
2018-Apr-20 09:00N 60°02' E 024°54'1223.1
2018-Apr-20 08:31N 59°51' E 024°49'1223.0
2018-Apr-20 08:00N 59°40' E 024°41'1122.3
2018-Apr-20 07:31N 59°29' E 024°46'2 4.5
2018-Apr-20 06:59N 59°27' E 024°46'0 0.0
2018-Apr-20 06:29N 59°27' E 024°46'817.6
2018-Apr-20 06:00N 59°35' E 024°41'1122.2
2018-Apr-20 05:31N 59°46' E 024°44'1122.7
2018-Apr-20 05:00N 59°56' E 024°53'1121.6
2018-Apr-20 04:30N 60°07' E 024°54'2 3.7
2018-Apr-20 03:58N 60°09' E 024°55'0 0.0
2018-Apr-20 03:28N 60°09' E 024°55'0 0.0
2018-Apr-20 02:58N 60°09' E 024°55'0 0.0
2018-Apr-20 02:28N 60°09' E 024°55'0 0.0
2018-Apr-20 01:58N 60°09' E 024°55'0 0.0
2018-Apr-20 01:28N 60°09' E 024°55'0 0.0
2018-Apr-20 00:58N 60°09' E 024°55'0 0.0
2018-Apr-20 00:28N 60°09' E 024°55'0 0.0
2018-Apr-19 23:58N 60°09' E 024°55'0 0.0
2018-Apr-19 23:28N 60°09' E 024°55'0 0.0
2018-Apr-19 22:58N 60°09' E 024°55'0 0.0
2018-Apr-19 22:28N 60°09' E 024°55'0 0.0
2018-Apr-19 21:58N 60°09' E 024°55'0 0.0
2018-Apr-19 21:29N 60°09' E 024°55'715.6
2018-Apr-19 21:01N 60°01' E 024°54'1223.3
2018-Apr-19 20:30N 59°50' E 024°50'1223.1
2018-Apr-19 20:00N 59°39' E 024°43'1121.5
2018-Apr-19 19:30N 59°28' E 024°46'2 3.2
2018-Apr-19 18:58N 59°27' E 024°46'0 0.0
2018-Apr-19 18:28N 59°27' E 024°46'817.1
2018-Apr-19 18:00N 59°34' E 024°41'1122.0
2018-Apr-19 17:30N 59°45' E 024°47'1223.1
2018-Apr-19 17:00N 59°56' E 024°53'1121.9
2018-Apr-19 16:30N 60°07' E 024°54'2 3.6
2018-Apr-19 15:58N 60°09' E 024°55'0 0.0
2018-Apr-19 15:30N 60°09' E 024°55'713.2
2018-Apr-19 15:01N 60°02' E 024°54'1223.0
2018-Apr-19 14:31N 59°51' E 024°51'1223.2
2018-Apr-19 14:00N 59°40' E 024°45'1020.6
2018-Apr-19 13:30N 59°29' E 024°46'3 5.4
2018-Apr-19 13:00N 59°27' E 024°46'0 0.0
2018-Apr-19 12:30N 59°27' E 024°46'917.4
2018-Apr-19 12:00N 59°35' E 024°41'1122.9
2018-Apr-19 11:30N 59°46' E 024°45'1223.2
2018-Apr-19 11:00N 59°57' E 024°53'1121.5
2018-Apr-19 10:30N 60°08' E 024°54'1 2.6
2018-Apr-19 10:00N 60°09' E 024°55'0 0.0
2018-Apr-19 09:30N 60°09' E 024°55'714.9
2018-Apr-19 09:00N 60°01' E 024°54'1223.1
2018-Apr-19 08:30N 59°50' E 024°50'1223.1
2018-Apr-19 08:01N 59°39' E 024°43'1121.2
2018-Apr-19 07:30N 59°29' E 024°46'2 3.6
2018-Apr-19 06:58N 59°27' E 024°46'0 0.0
2018-Apr-19 06:28N 59°27' E 024°46'816.7
2018-Apr-19 06:01N 59°34' E 024°42'1121.4
2018-Apr-19 05:31N 59°44' E 024°49'1122.6
2018-Apr-19 05:01N 59°55' E 024°53'1121.8
2018-Apr-19 04:31N 60°06' E 024°54'3 5.3
2018-Apr-19 03:58N 60°09' E 024°55'0 0.0
2018-Apr-19 03:28N 60°09' E 024°55'0 0.0
2018-Apr-19 02:58N 60°09' E 024°55'0 0.0
2018-Apr-19 02:28N 60°09' E 024°55'0 0.0
2018-Apr-19 01:58N 60°09' E 024°55'0 0.0
2018-Apr-19 01:28N 60°09' E 024°55'0 0.0
2018-Apr-19 00:58N 60°09' E 024°55'0 0.0
2018-Apr-19 00:25N 60°09' E 024°55'0 0.0
2018-Apr-18 23:58N 60°09' E 024°55'0 0.0
2018-Apr-18 23:28N 60°09' E 024°55'0 0.0
2018-Apr-18 22:58N 60°09' E 024°55'0 0.0
2018-Apr-18 22:28N 60°09' E 024°55'0 0.0
2018-Apr-18 21:58N 60°09' E 024°55'0 0.1
2018-Apr-18 21:30N 60°09' E 024°55'917.2
2018-Apr-18 21:00N 60°00' E 024°54'1224.1
2018-Apr-18 20:31N 59°49' E 024°48'1223.8
2018-Apr-18 20:01N 59°37' E 024°41'1121.6
2018-Apr-18 19:31N 59°27' E 024°47'0 0.5
2018-Apr-18 18:59N 59°27' E 024°46'0 0.0
2018-Apr-18 18:29N 59°27' E 024°46'715.1
2018-Apr-18 18:00N 59°34' E 024°42'1121.6
2018-Apr-18 17:31N 59°44' E 024°47'1223.1
2018-Apr-18 17:01N 59°55' E 024°52'1122.2
2018-Apr-18 16:30N 60°06' E 024°54'3 4.8
2018-Apr-18 15:58N 60°09' E 024°55'0 0.0
2018-Apr-18 15:30N 60°09' E 024°55'714.6
2018-Apr-18 15:00N 60°02' E 024°54'1223.3
2018-Apr-18 14:31N 59°50' E 024°50'1223.2
2018-Apr-18 14:00N 59°39' E 024°43'1121.2
2018-Apr-18 13:30N 59°29' E 024°46'2 3.7
2018-Apr-18 12:59N 59°27' E 024°46'0 0.0
2018-Apr-18 12:30N 59°27' E 024°46'816.1
2018-Apr-18 12:01N 59°34' E 024°41'1121.6
2018-Apr-18 11:31N 59°45' E 024°47'1122.5
2018-Apr-18 11:00N 59°56' E 024°52'1121.8
2018-Apr-18 10:30N 60°06' E 024°54'3 4.7
2018-Apr-18 09:58N 60°09' E 024°55'0 0.0
2018-Apr-18 09:29N 60°09' E 024°55'715.7
2018-Apr-18 09:01N 60°01' E 024°54'1223.0
2018-Apr-18 08:31N 59°50' E 024°49'1122.9
2018-Apr-18 08:00N 59°39' E 024°41'1122.1
2018-Apr-18 07:30N 59°29' E 024°46'2 4.0
2018-Apr-18 07:00N 59°27' E 024°46'0 0.0
2018-Apr-18 06:30N 59°27' E 024°46'715.0
2018-Apr-18 06:01N 59°34' E 024°42'1121.5
2018-Apr-18 05:30N 59°44' E 024°47'1123.0
2018-Apr-18 05:01N 59°55' E 024°52'1122.0
2018-Apr-18 04:31N 60°06' E 024°54'3 5.1
2018-Apr-18 03:59N 60°09' E 024°55'0 0.0
2018-Apr-18 03:29N 60°09' E 024°55'0 0.0
2018-Apr-18 02:59N 60°09' E 024°55'0 0.0
2018-Apr-18 02:26N 60°09' E 024°55'0 0.0
2018-Apr-18 01:59N 60°09' E 024°55'0 0.0
2018-Apr-18 01:29N 60°09' E 024°55'0 0.0
2018-Apr-18 00:59N 60°09' E 024°55'0 0.0
2018-Apr-18 00:29N 60°09' E 024°55'0 0.0
2018-Apr-17 23:59N 60°09' E 024°55'0 0.0
2018-Apr-17 23:29N 60°09' E 024°55'0 0.0
2018-Apr-17 22:59N 60°09' E 024°55'0 0.0
2018-Apr-17 22:29N 60°09' E 024°55'714.0
2018-Apr-17 22:00N 60°02' E 024°54'1223.1
2018-Apr-17 21:31N 59°51' E 024°51'1223.0
2018-Apr-17 21:01N 59°40' E 024°44'1121.3
2018-Apr-17 20:30N 59°29' E 024°46'3 4.7
2018-Apr-17 19:58N 59°27' E 024°46'0 0.0
2018-Apr-17 19:28N 59°27' E 024°46'0 0.0
2018-Apr-17 18:58N 59°27' E 024°46'0 0.0
2018-Apr-17 18:28N 59°27' E 024°46'816.7
2018-Apr-17 18:01N 59°34' E 024°42'1122.4
2018-Apr-17 17:30N 59°45' E 024°44'1223.2
2018-Apr-17 17:00N 59°56' E 024°52'1121.7
2018-Apr-17 16:30N 60°07' E 024°54'2 4.5
2018-Apr-17 15:59N 60°09' E 024°55'0 0.0
2018-Apr-17 15:30N 60°09' E 024°55'714.4
2018-Apr-17 15:00N 60°02' E 024°54'1122.7
2018-Apr-17 14:31N 59°51' E 024°51'1122.7
2018-Apr-17 14:00N 59°40' E 024°44'1021.0
2018-Apr-17 13:31N 59°29' E 024°46'3 5.2
2018-Apr-17 13:00N 59°27' E 024°46'0 0.0
2018-Apr-17 12:30N 59°27' E 024°46'815.8
2018-Apr-17 12:01N 59°34' E 024°42'1121.7
2018-Apr-17 11:30N 59°44' E 024°47'1122.9
2018-Apr-17 11:00N 59°56' E 024°52'1122.0
2018-Apr-17 10:30N 60°07' E 024°54'2 4.6
2018-Apr-17 10:00N 60°09' E 024°55'0 0.0
2018-Apr-17 09:30N 60°09' E 024°55'815.2
2018-Apr-17 09:00N 60°01' E 024°54'1223.1
2018-Apr-17 08:30N 59°50' E 024°53'1123.0
2018-Apr-17 08:01N 59°39' E 024°44'1121.0
2018-Apr-17 07:30N 59°29' E 024°46'2 4.2
2018-Apr-17 07:00N 59°27' E 024°46'0 0.0
2018-Apr-17 06:30N 59°27' E 024°46'715.1
2018-Apr-17 06:00N 59°34' E 024°42'1121.7
2018-Apr-17 05:31N 59°44' E 024°47'1223.3
2018-Apr-17 05:00N 59°56' E 024°52'1121.8
2018-Apr-17 04:30N 60°06' E 024°54'3 4.8
2018-Apr-17 03:59N 60°09' E 024°55'0 0.0
2018-Apr-17 03:28N 60°09' E 024°55'0 0.0
2018-Apr-17 02:58N 60°09' E 024°55'0 0.0
2018-Apr-17 02:28N 60°09' E 024°55'0 0.0
2018-Apr-17 01:58N 60°09' E 024°55'0 0.0
2018-Apr-17 01:28N 60°09' E 024°55'0 0.0
2018-Apr-17 00:59N 60°09' E 024°55'0 0.0
2018-Apr-17 00:29N 60°09' E 024°55'0 0.0
2018-Apr-16 23:59N 60°09' E 024°55'0 0.0
2018-Apr-16 23:29N 60°09' E 024°55'0 0.0
2018-Apr-16 22:59N 60°09' E 024°55'0 0.0
2018-Apr-16 22:28N 60°09' E 024°55'0 0.0
2018-Apr-16 21:58N 60°09' E 024°55'0 0.0
2018-Apr-16 21:29N 60°09' E 024°55'816.1
2018-Apr-16 21:01N 60°01' E 024°54'1224.3
2018-Apr-16 20:31N 59°50' E 024°47'1224.4
2018-Apr-16 20:01N 59°38' E 024°41'1122.4
2018-Apr-16 19:31N 59°27' E 024°47'0 0.6
2018-Apr-16 19:00N 59°27' E 024°46'0 0.0
2018-Apr-16 18:31N 59°27' E 024°46'815.4
2018-Apr-16 18:00N 59°34' E 024°42'1121.5
2018-Apr-16 17:31N 59°44' E 024°47'1122.9
2018-Apr-16 17:00N 59°56' E 024°52'1121.8
2018-Apr-16 16:30N 60°06' E 024°54'3 4.9
2018-Apr-16 15:59N 60°09' E 024°55'0 0.0
2018-Apr-16 15:30N 60°09' E 024°55'713.6
2018-Apr-16 15:01N 60°02' E 024°54'1223.1
2018-Apr-16 14:31N 59°51' E 024°51'1223.0
2018-Apr-16 14:00N 59°40' E 024°44'1121.5
2018-Apr-16 13:31N 59°29' E 024°46'2 4.4
2018-Apr-16 12:58N 59°27' E 024°46'0 0.0
2018-Apr-16 12:28N 59°27' E 024°46'714.5
2018-Apr-16 12:01N 59°33' E 024°42'1121.3
2018-Apr-16 11:31N 59°44' E 024°46'1223.1
2018-Apr-16 11:01N 59°55' E 024°52'1122.2
2018-Apr-16 10:31N 60°06' E 024°54'3 5.8
2018-Apr-16 09:58N 60°09' E 024°55'0 0.0
2018-Apr-16 09:30N 60°09' E 024°55'714.4
2018-Apr-16 09:01N 60°02' E 024°54'1223.5
2018-Apr-16 08:31N 59°50' E 024°49'1223.0
2018-Apr-16 08:00N 59°39' E 024°41'1122.2
2018-Apr-16 07:31N 59°29' E 024°46'2 3.8
2018-Apr-16 07:00N 59°27' E 024°46'0 0.0
2018-Apr-16 06:30N 59°27' E 024°46'714.6
2018-Apr-16 06:01N 59°34' E 024°42'1121.3
2018-Apr-16 05:30N 59°44' E 024°46'1122.7
2018-Apr-16 05:00N 59°55' E 024°52'1122.1
2018-Apr-16 04:31N 60°06' E 024°54'3 5.4
2018-Apr-16 03:58N 60°09' E 024°55'0 0.0
2018-Apr-16 03:28N 60°09' E 024°55'0 0.0
2018-Apr-16 02:58N 60°09' E 024°55'0 0.0
2018-Apr-16 02:28N 60°09' E 024°55'0 0.0
2018-Apr-16 01:58N 60°09' E 024°55'0 0.0
2018-Apr-16 01:28N 60°09' E 024°55'0 0.0
2018-Apr-16 00:58N 60°09' E 024°55'0 0.0
2018-Apr-16 00:28N 60°09' E 024°55'0 0.0
2018-Apr-15 23:58N 60°09' E 024°55'0 0.0
2018-Apr-15 23:28N 60°09' E 024°55'0 0.0
2018-Apr-15 22:58N 60°09' E 024°55'0 0.0
2018-Apr-15 22:28N 60°09' E 024°55'0 0.0
2018-Apr-15 21:58N 60°09' E 024°55'0 0.0
2018-Apr-15 21:30N 60°09' E 024°55'816.6
2018-Apr-15 21:01N 60°01' E 024°54'1223.7
2018-Apr-15 20:31N 59°49' E 024°48'1122.8
2018-Apr-15 20:01N 59°38' E 024°41'1122.2
2018-Apr-15 19:31N 59°28' E 024°47'1 2.1
2018-Apr-15 18:59N 59°27' E 024°46'0 0.0
2018-Apr-15 18:30N 59°27' E 024°46'714.7
2018-Apr-15 18:01N 59°34' E 024°42'1121.2
2018-Apr-15 17:31N 59°44' E 024°47'1122.5
2018-Apr-15 17:00N 59°55' E 024°51'1122.1
2018-Apr-15 16:30N 60°06' E 024°54'3 5.6
2018-Apr-15 15:58N 60°09' E 024°55'0 0.0
2018-Apr-15 15:30N 60°09' E 024°55'713.8
2018-Apr-15 15:00N 60°02' E 024°54'1122.8
2018-Apr-15 14:31N 59°51' E 024°50'1223.2
2018-Apr-15 14:00N 59°40' E 024°44'1121.5
2018-Apr-15 13:31N 59°29' E 024°46'2 4.4
2018-Apr-15 12:58N 59°27' E 024°46'0 0.0
2018-Apr-15 12:29N 59°27' E 024°46'714.9
2018-Apr-15 12:01N 59°33' E 024°42'1122.4
2018-Apr-15 11:31N 59°45' E 024°43'1223.4
2018-Apr-15 11:00N 59°55' E 024°52'1122.0
2018-Apr-15 10:30N 60°06' E 024°54'3 4.6
2018-Apr-15 09:58N 60°09' E 024°55'0 0.0
2018-Apr-15 09:30N 60°09' E 024°55'713.7
2018-Apr-15 09:01N 60°02' E 024°54'1223.3
2018-Apr-15 08:31N 59°51' E 024°50'1223.1
2018-Apr-15 08:01N 59°40' E 024°44'1122.0
2018-Apr-15 07:30N 59°29' E 024°46'2 3.7
2018-Apr-15 06:58N 59°27' E 024°46'0 0.0
2018-Apr-15 06:30N 59°27' E 024°46'714.2
2018-Apr-15 06:01N 59°33' E 024°42'1122.0
2018-Apr-15 05:31N 59°44' E 024°43'1223.0
2018-Apr-15 05:00N 59°55' E 024°52'1122.4
2018-Apr-15 04:30N 60°06' E 024°54'3 5.0
2018-Apr-15 03:58N 60°09' E 024°55'0 0.0
2018-Apr-15 03:28N 60°09' E 024°55'0 0.0
2018-Apr-15 02:58N 60°09' E 024°55'0 0.0
2018-Apr-15 02:28N 60°09' E 024°55'0 0.0
2018-Apr-15 01:58N 60°09' E 024°55'0 0.0
2018-Apr-15 01:28N 60°09' E 024°55'0 0.0
2018-Apr-15 00:55N 60°09' E 024°55'0 0.0
2018-Apr-15 00:28N 60°09' E 024°55'0 0.0
2018-Apr-14 23:58N 60°09' E 024°55'0 0.0
2018-Apr-14 23:28N 60°09' E 024°55'0 0.0
2018-Apr-14 22:58N 60°09' E 024°55'0 0.0
2018-Apr-14 22:28N 60°09' E 024°55'0 0.0
2018-Apr-14 21:58N 60°09' E 024°55'0 0.0
2018-Apr-14 21:30N 60°09' E 024°55'612.5
2018-Apr-14 21:00N 60°03' E 024°54'1223.1
2018-Apr-14 20:31N 59°51' E 024°51'1223.3
2018-Apr-14 20:00N 59°40' E 024°44'1122.0
2018-Apr-14 19:30N 59°29' E 024°46'2 4.7
2018-Apr-14 18:59N 59°27' E 024°46'0 0.0
2018-Apr-14 18:27N 59°27' E 024°46'716.0
2018-Apr-14 18:01N 59°33' E 024°42'1121.6
2018-Apr-14 17:31N 59°44' E 024°47'1223.1
2018-Apr-14 17:00N 59°55' E 024°53'1122.4
2018-Apr-14 16:30N 60°06' E 024°54'3 5.4
2018-Apr-14 16:00N 60°09' E 024°55'0 0.0
2018-Apr-14 15:30N 60°09' E 024°55'612.7
2018-Apr-14 15:00N 60°03' E 024°54'1223.2
2018-Apr-14 14:31N 59°51' E 024°51'1223.1
2018-Apr-14 14:01N 59°40' E 024°44'1121.9
2018-Apr-14 13:31N 59°29' E 024°46'2 4.6
2018-Apr-14 12:58N 59°27' E 024°46'0 0.0
2018-Apr-14 12:29N 59°27' E 024°46'714.7
2018-Apr-14 12:01N 59°33' E 024°42'1223.3
2018-Apr-14 11:31N 59°45' E 024°44'1224.0
2018-Apr-14 11:00N 59°56' E 024°53'1121.2
2018-Apr-14 10:30N 60°07' E 024°54'2 4.3
2018-Apr-14 09:59N 60°09' E 024°55'0 0.0
2018-Apr-14 09:30N 60°09' E 024°55'713.2
2018-Apr-14 09:00N 60°02' E 024°54'1223.3
2018-Apr-14 08:30N 59°51' E 024°51'1223.5
2018-Apr-14 08:01N 59°40' E 024°44'1122.3
2018-Apr-14 07:30N 59°29' E 024°46'2 3.5
2018-Apr-14 06:58N 59°27' E 024°46'0 0.0
2018-Apr-14 06:30N 59°27' E 024°46'713.7
2018-Apr-14 06:01N 59°33' E 024°42'1223.5
2018-Apr-14 05:31N 59°45' E 024°44'1224.2
2018-Apr-14 05:01N 59°56' E 024°53'1122.5
2018-Apr-14 04:31N 60°07' E 024°54'2 3.1
2018-Apr-14 03:59N 60°09' E 024°55'0 0.0
2018-Apr-14 03:29N 60°09' E 024°55'0 0.0
2018-Apr-14 02:59N 60°09' E 024°55'0 0.0
2018-Apr-14 02:29N 60°09' E 024°55'0 0.0
2018-Apr-14 01:59N 60°09' E 024°55'0 0.0
2018-Apr-14 01:29N 60°09' E 024°55'0 0.0
2018-Apr-14 00:59N 60°09' E 024°55'0 0.0
2018-Apr-14 00:29N 60°09' E 024°55'0 0.0
2018-Apr-13 23:59N 60°09' E 024°55'0 0.0
2018-Apr-13 23:29N 60°09' E 024°55'0 0.0
2018-Apr-13 22:59N 60°09' E 024°55'0 0.0
2018-Apr-13 22:29N 60°09' E 024°55'0 0.0
2018-Apr-13 21:59N 60°09' E 024°55'0 0.0
2018-Apr-13 21:30N 60°09' E 024°55'613.0
2018-Apr-13 21:01N 60°02' E 024°54'1123.0
2018-Apr-13 20:31N 59°51' E 024°48'1122.9
2018-Apr-13 20:00N 59°40' E 024°42'1122.8
2018-Apr-13 19:31N 59°29' E 024°46'3 4.8
2018-Apr-13 18:58N 59°27' E 024°46'0 0.0
2018-Apr-13 18:29N 59°27' E 024°46'714.2
2018-Apr-13 18:01N 59°33' E 024°42'1121.9
2018-Apr-13 17:31N 59°44' E 024°47'1223.3
2018-Apr-13 17:00N 59°55' E 024°52'1122.6
2018-Apr-13 16:30N 60°06' E 024°54'3 4.6
2018-Apr-13 15:58N 60°09' E 024°55'0 0.0
2018-Apr-13 15:30N 60°09' E 024°55'612.7
2018-Apr-13 15:00N 60°03' E 024°54'1223.3
2018-Apr-13 14:30N 59°51' E 024°49'2516.2
2018-Apr-13 12:59N 59°27' E 024°46'0 0.0
2018-Apr-13 12:30N 59°27' E 024°46'4020.1
2018-Apr-13 10:30N 60°06' E 024°54'2 4.6
2018-Apr-13 09:58N 60°09' E 024°55'0 0.1
2018-Apr-13 09:26N 60°09' E 024°55'615.2
2018-Apr-13 09:00N 60°02' E 024°54'1224.3
2018-Apr-13 08:30N 59°50' E 024°50'1224.3
2018-Apr-13 08:00N 59°39' E 024°43'1223.1
2018-Apr-13 07:30N 59°27' E 024°47'1 1.6
2018-Apr-13 06:59N 59°27' E 024°46'  
Track history (hours):
 
Tides and Currents Weather Stations Pressure Air Temp Water Temp Dewpoint Dewpoint Depression Visibility Wind Speed Wind Dir Waves Ship Positions

Star

Last reported at 2018-Apr-23 06:58 UTC. Time now 2018-Apr-23 07:18 UTC.
Position N 59°27' E 024°46'.

Length 186 m; draft 5.9 m.

Type: Ship (hazmat cat B). MMSI: 276672000.

Date/timePositionNaut miles runAvg speedWind from/ knotsBaromVisibWave heightAir tempDewpointWater temp
2018-Apr-23 06:58N 59°27' E 024°46'0 0.0
2018-Apr-23 06:28N 59°27' E 024°46'714.6
2018-Apr-23 06:00N 59°33' E 024°42'1121.3
2018-Apr-23 05:31N 59°44' E 024°46'1122.9
2018-Apr-23 05:00N 59°55' E 024°52'1122.6
2018-Apr-23 04:30N 60°06' E 024°54'3 5.9
2018-Apr-23 04:00N 60°09' E 024°55'0 0.0
2018-Apr-23 03:30N 60°09' E 024°55'0 0.0
2018-Apr-23 03:00N 60°09' E 024°55'0 0.0
2018-Apr-23 02:30N 60°09' E 024°55'0 0.0
2018-Apr-23 02:00N 60°09' E 024°55'0 0.0
2018-Apr-23 01:30N 60°09' E 024°55'0 0.0
2018-Apr-23 01:00N 60°09' E 024°55'0 0.0
2018-Apr-23 00:30N 60°09' E 024°55'0 0.0
2018-Apr-23 00:00N 60°09' E 024°55'0 0.0
2018-Apr-22 23:30N 60°09' E 024°55'0 0.0
2018-Apr-22 23:00N 60°09' E 024°55'0 0.0
2018-Apr-22 22:30N 60°09' E 024°55'0 0.0
2018-Apr-22 22:00N 60°09' E 024°55'0 0.0
2018-Apr-22 21:30N 60°09' E 024°55'815.9
2018-Apr-22 21:01N 60°01' E 024°54'1223.3
2018-Apr-22 20:31N 59°50' E 024°50'1223.4
2018-Apr-22 20:01N 59°38' E 024°43'1122.0
2018-Apr-22 19:30N 59°28' E 024°47'1 1.8
2018-Apr-22 19:00N 59°27' E 024°46'0 0.0
2018-Apr-22 18:30N 59°27' E 024°46'714.9
2018-Apr-22 18:01N 59°34' E 024°42'1121.3
2018-Apr-22 17:31N 59°44' E 024°47'1122.5
2018-Apr-22 17:00N 59°55' E 024°52'1122.1
2018-Apr-22 16:30N 60°06' E 024°54'3 5.8
2018-Apr-22 16:00N 60°09' E 024°55'0 0.0
2018-Apr-22 15:31N 60°09' E 024°55'713.6
2018-Apr-22 15:01N 60°02' E 024°54'1122.4
2018-Apr-22 14:30N 59°51' E 024°51'1122.5
2018-Apr-22 14:01N 59°40' E 024°44'1121.7
2018-Apr-22 13:30N 59°29' E 024°46'3 5.6
2018-Apr-22 13:00N 59°27' E 024°46'0 0.0
2018-Apr-22 12:30N 59°27' E 024°46'815.5
2018-Apr-22 12:00N 59°34' E 024°41'1121.4
2018-Apr-22 11:31N 59°45' E 024°44'1122.3
2018-Apr-22 11:00N 59°55' E 024°53'1122.2
2018-Apr-22 10:31N 60°06' E 024°54'3 5.8
2018-Apr-22 10:00N 60°09' E 024°55'0 0.0
2018-Apr-22 09:30N 60°09' E 024°55'714.7
2018-Apr-22 09:01N 60°02' E 024°54'1122.8
2018-Apr-22 08:30N 59°51' E 024°49'1122.6
2018-Apr-22 08:01N 59°40' E 024°41'1122.6
2018-Apr-22 07:31N 59°29' E 024°46'2 4.1
2018-Apr-22 06:59N 59°27' E 024°46'0 0.0
2018-Apr-22 06:29N 59°27' E 024°46'816.5
2018-Apr-22 06:01N 59°34' E 024°42'1021.0
2018-Apr-22 05:31N 59°44' E 024°47'1122.2
2018-Apr-22 05:01N 59°55' E 024°52'1122.1
2018-Apr-22 04:31N 60°06' E 024°54'3 5.6
2018-Apr-22 03:59N 60°09' E 024°55'0 0.0
2018-Apr-22 03:29N 60°09' E 024°55'0 0.0
2018-Apr-22 02:59N 60°09' E 024°55'0 0.0
2018-Apr-22 02:29N 60°09' E 024°55'0 0.0
2018-Apr-22 01:59N 60°09' E 024°55'0 0.0
2018-Apr-22 01:29N 60°09' E 024°55'0 0.0
2018-Apr-22 00:59N 60°09' E 024°55'0 0.0
2018-Apr-22 00:29N 60°09' E 024°55'0 0.0
2018-Apr-21 23:59N 60°09' E 024°55'0 0.0
2018-Apr-21 23:26N 60°09' E 024°55'0 0.0
2018-Apr-21 22:59N 60°09' E 024°55'0 0.0
2018-Apr-21 22:29N 60°09' E 024°55'0 0.0
2018-Apr-21 21:59N 60°09' E 024°55'0 0.0
2018-Apr-21 21:30N 60°09' E 024°55'715.0
2018-Apr-21 21:01N 60°02' E 024°54'1122.4
2018-Apr-21 20:31N 59°51' E 024°50'1122.4
2018-Apr-21 20:01N 59°40' E 024°44'1121.1
2018-Apr-21 19:30N 59°29' E 024°46'3 5.4
2018-Apr-21 19:00N 59°27' E 024°46'0 0.0
2018-Apr-21 18:30N 59°27' E 024°46'816.4
2018-Apr-21 18:01N 59°34' E 024°41'1020.2
2018-Apr-21 17:30N 59°44' E 024°47'1122.6
2018-Apr-21 17:00N 59°55' E 024°52'1122.0
2018-Apr-21 16:30N 60°06' E 024°54'3 5.6
2018-Apr-21 15:59N 60°09' E 024°55'0 0.0
2018-Apr-21 15:30N 60°09' E 024°55'714.7
2018-Apr-21 15:01N 60°02' E 024°54'1122.7
2018-Apr-21 14:31N 59°50' E 024°51'1122.9
2018-Apr-21 14:01N 59°40' E 024°44'1121.3
2018-Apr-21 13:30N 59°29' E 024°46'2 4.4
2018-Apr-21 12:59N 59°27' E 024°46'0 0.0
2018-Apr-21 12:29N 59°27' E 024°46'816.0
2018-Apr-21 12:00N 59°34' E 024°42'1121.1
2018-Apr-21 11:30N 59°44' E 024°47'1122.4
2018-Apr-21 11:00N 59°55' E 024°52'1122.3
2018-Apr-21 10:31N 60°06' E 024°54'3 5.3
2018-Apr-21 09:59N 60°09' E 024°55'0 0.1
2018-Apr-21 09:29N 60°09' E 024°55'816.0
2018-Apr-21 09:00N 60°01' E 024°54'1122.8
2018-Apr-21 08:30N 59°50' E 024°50'1122.6
2018-Apr-21 08:01N 59°39' E 024°44'1121.0
2018-Apr-21 07:31N 59°29' E 024°46'2 4.1
2018-Apr-21 07:00N 59°27' E 024°46'0 0.0
2018-Apr-21 06:30N 59°27' E 024°46'816.4
2018-Apr-21 06:00N 59°34' E 024°41'1224.4
2018-Apr-21 05:31N 59°46' E 024°45'1224.9
2018-Apr-21 05:01N 59°58' E 024°54'1121.3
2018-Apr-21 04:31N 60°09' E 024°54'0 0.7
2018-Apr-21 03:59N 60°09' E 024°55'0 0.0
2018-Apr-21 03:29N 60°09' E 024°55'0 0.0
2018-Apr-21 02:59N 60°09' E 024°55'0 0.0
2018-Apr-21 02:29N 60°09' E 024°55'0 0.0
2018-Apr-21 01:59N 60°09' E 024°55'0 0.0
2018-Apr-21 01:29N 60°09' E 024°55'0 0.0
2018-Apr-21 00:59N 60°09' E 024°55'0 0.0
2018-Apr-21 00:29N 60°09' E 024°55'0 0.0
2018-Apr-20 23:59N 60°09' E 024°55'0 0.0
2018-Apr-20 23:29N 60°09' E 024°55'0 0.0
2018-Apr-20 22:59N 60°09' E 024°55'0 0.0
2018-Apr-20 22:29N 60°09' E 024°55'0 0.0
2018-Apr-20 21:59N 60°09' E 024°55'0 0.0
2018-Apr-20 21:29N 60°09' E 024°55'714.1
2018-Apr-20 21:01N 60°02' E 024°54'1122.6
2018-Apr-20 20:31N 59°51' E 024°50'1122.7
2018-Apr-20 20:00N 59°40' E 024°44'1121.8
2018-Apr-20 19:31N 59°29' E 024°46'3 5.1
2018-Apr-20 19:00N 59°27' E 024°46'0 0.0
2018-Apr-20 18:30N 59°27' E 024°46'714.9
2018-Apr-20 18:01N 59°34' E 024°42'1121.4
2018-Apr-20 17:30N 59°44' E 024°47'1122.9
2018-Apr-20 17:00N 59°55' E 024°52'1122.0
2018-Apr-20 16:30N 60°06' E 024°54'3 5.5
2018-Apr-20 16:00N 60°09' E 024°55'0 0.0
2018-Apr-20 15:30N 60°09' E 024°55'713.2
2018-Apr-20 15:00N 60°02' E 024°54'1122.4
2018-Apr-20 14:30N 59°51' E 024°51'1122.6
2018-Apr-20 14:00N 59°40' E 024°44'1121.5
2018-Apr-20 13:30N 59°30' E 024°46'3 5.6
2018-Apr-20 12:58N 59°27' E 024°46'0 0.0
2018-Apr-20 12:30N 59°27' E 024°46'815.7
2018-Apr-20 12:00N 59°34' E 024°41'1122.1
2018-Apr-20 11:31N 59°45' E 024°47'1122.6
2018-Apr-20 11:00N 59°56' E 024°52'1122.0
2018-Apr-20 10:30N 60°07' E 024°54'2 4.4
2018-Apr-20 09:59N 60°09' E 024°55'0 0.0
2018-Apr-20 09:29N 60°09' E 024°55'714.4
2018-Apr-20 09:00N 60°02' E 024°54'1223.1
2018-Apr-20 08:31N 59°51' E 024°49'1223.0
2018-Apr-20 08:00N 59°40' E 024°41'1122.3
2018-Apr-20 07:31N 59°29' E 024°46'2 4.5
2018-Apr-20 06:59N 59°27' E 024°46'0 0.0
2018-Apr-20 06:29N 59°27' E 024°46'817.6
2018-Apr-20 06:00N 59°35' E 024°41'1122.2
2018-Apr-20 05:31N 59°46' E 024°44'1122.7
2018-Apr-20 05:00N 59°56' E 024°53'1121.6
2018-Apr-20 04:30N 60°07' E 024°54'2 3.7
2018-Apr-20 03:58N 60°09' E 024°55'0 0.0
2018-Apr-20 03:28N 60°09' E 024°55'0 0.0
2018-Apr-20 02:58N 60°09' E 024°55'0 0.0
2018-Apr-20 02:28N 60°09' E 024°55'0 0.0
2018-Apr-20 01:58N 60°09' E 024°55'0 0.0
2018-Apr-20 01:28N 60°09' E 024°55'0 0.0
2018-Apr-20 00:58N 60°09' E 024°55'0 0.0
2018-Apr-20 00:28N 60°09' E 024°55'0 0.0
2018-Apr-19 23:58N 60°09' E 024°55'0 0.0
2018-Apr-19 23:28N 60°09' E 024°55'0 0.0
2018-Apr-19 22:58N 60°09' E 024°55'0 0.0
2018-Apr-19 22:28N 60°09' E 024°55'0 0.0
2018-Apr-19 21:58N 60°09' E 024°55'0 0.0
2018-Apr-19 21:29N 60°09' E 024°55'715.6
2018-Apr-19 21:01N 60°01' E 024°54'1223.3
2018-Apr-19 20:30N 59°50' E 024°50'1223.1
2018-Apr-19 20:00N 59°39' E 024°43'1121.5
2018-Apr-19 19:30N 59°28' E 024°46'2 3.2
2018-Apr-19 18:58N 59°27' E 024°46'0 0.0
2018-Apr-19 18:28N 59°27' E 024°46'817.1
2018-Apr-19 18:00N 59°34' E 024°41'1122.0
2018-Apr-19 17:30N 59°45' E 024°47'1223.1
2018-Apr-19 17:00N 59°56' E 024°53'1121.9
2018-Apr-19 16:30N 60°07' E 024°54'2 3.6
2018-Apr-19 15:58N 60°09' E 024°55'0 0.0
2018-Apr-19 15:30N 60°09' E 024°55'713.2
2018-Apr-19 15:01N 60°02' E 024°54'1223.0
2018-Apr-19 14:31N 59°51' E 024°51'1223.2
2018-Apr-19 14:00N 59°40' E 024°45'1020.6
2018-Apr-19 13:30N 59°29' E 024°46'3 5.4
2018-Apr-19 13:00N 59°27' E 024°46'0 0.0
2018-Apr-19 12:30N 59°27' E 024°46'917.4
2018-Apr-19 12:00N 59°35' E 024°41'1122.9
2018-Apr-19 11:30N 59°46' E 024°45'1223.2
2018-Apr-19 11:00N 59°57' E 024°53'1121.5
2018-Apr-19 10:30N 60°08' E 024°54'1 2.6
2018-Apr-19 10:00N 60°09' E 024°55'0 0.0
2018-Apr-19 09:30N 60°09' E 024°55'714.9
2018-Apr-19 09:00N 60°01' E 024°54'1223.1
2018-Apr-19 08:30N 59°50' E 024°50'1223.1
2018-Apr-19 08:01N 59°39' E 024°43'1121.2
2018-Apr-19 07:30N 59°29' E 024°46'2 3.6
2018-Apr-19 06:58N 59°27' E 024°46'0 0.0
2018-Apr-19 06:28N 59°27' E 024°46'816.7
2018-Apr-19 06:01N 59°34' E 024°42'1121.4
2018-Apr-19 05:31N 59°44' E 024°49'1122.6
2018-Apr-19 05:01N 59°55' E 024°53'1121.8
2018-Apr-19 04:31N 60°06' E 024°54'3 5.3
2018-Apr-19 03:58N 60°09' E 024°55'0 0.0
2018-Apr-19 03:28N 60°09' E 024°55'0 0.0
2018-Apr-19 02:58N 60°09' E 024°55'0 0.0
2018-Apr-19 02:28N 60°09' E 024°55'0 0.0
2018-Apr-19 01:58N 60°09' E 024°55'0 0.0
2018-Apr-19 01:28N 60°09' E 024°55'0 0.0
2018-Apr-19 00:58N 60°09' E 024°55'0 0.0
2018-Apr-19 00:25N 60°09' E 024°55'0 0.0
2018-Apr-18 23:58N 60°09' E 024°55'0 0.0
2018-Apr-18 23:28N 60°09' E 024°55'0 0.0
2018-Apr-18 22:58N 60°09' E 024°55'0 0.0
2018-Apr-18 22:28N 60°09' E 024°55'0 0.0
2018-Apr-18 21:58N 60°09' E 024°55'0 0.1
2018-Apr-18 21:30N 60°09' E 024°55'917.2
2018-Apr-18 21:00N 60°00' E 024°54'1224.1
2018-Apr-18 20:31N 59°49' E 024°48'1223.8
2018-Apr-18 20:01N 59°37' E 024°41'1121.6
2018-Apr-18 19:31N 59°27' E 024°47'0 0.5
2018-Apr-18 18:59N 59°27' E 024°46'0 0.0
2018-Apr-18 18:29N 59°27' E 024°46'715.1
2018-Apr-18 18:00N 59°34' E 024°42'1121.6
2018-Apr-18 17:31N 59°44' E 024°47'1223.1
2018-Apr-18 17:01N 59°55' E 024°52'1122.2
2018-Apr-18 16:30N 60°06' E 024°54'3 4.8
2018-Apr-18 15:58N 60°09' E 024°55'0 0.0
2018-Apr-18 15:30N 60°09' E 024°55'714.6
2018-Apr-18 15:00N 60°02' E 024°54'1223.3
2018-Apr-18 14:31N 59°50' E 024°50'1223.2
2018-Apr-18 14:00N 59°39' E 024°43'1121.2
2018-Apr-18 13:30N 59°29' E 024°46'2 3.7
2018-Apr-18 12:59N 59°27' E 024°46'0 0.0
2018-Apr-18 12:30N 59°27' E 024°46'816.1
2018-Apr-18 12:01N 59°34' E 024°41'1121.6
2018-Apr-18 11:31N 59°45' E 024°47'1122.5
2018-Apr-18 11:00N 59°56' E 024°52'1121.8
2018-Apr-18 10:30N 60°06' E 024°54'3 4.7
2018-Apr-18 09:58N 60°09' E 024°55'0 0.0
2018-Apr-18 09:29N 60°09' E 024°55'715.7
2018-Apr-18 09:01N 60°01' E 024°54'1223.0
2018-Apr-18 08:31N 59°50' E 024°49'1122.9
2018-Apr-18 08:00N 59°39' E 024°41'1122.1
2018-Apr-18 07:30N 59°29' E 024°46'2 4.0
2018-Apr-18 07:00N 59°27' E 024°46'0 0.0
2018-Apr-18 06:30N 59°27' E 024°46'715.0
2018-Apr-18 06:01N 59°34' E 024°42'1121.5
2018-Apr-18 05:30N 59°44' E 024°47'1123.0
2018-Apr-18 05:01N 59°55' E 024°52'1122.0
2018-Apr-18 04:31N 60°06' E 024°54'3 5.1
2018-Apr-18 03:59N 60°09' E 024°55'0 0.0
2018-Apr-18 03:29N 60°09' E 024°55'0 0.0
2018-Apr-18 02:59N 60°09' E 024°55'0 0.0
2018-Apr-18 02:26N 60°09' E 024°55'0 0.0
2018-Apr-18 01:59N 60°09' E 024°55'0 0.0
2018-Apr-18 01:29N 60°09' E 024°55'0 0.0
2018-Apr-18 00:59N 60°09' E 024°55'0 0.0
2018-Apr-18 00:29N 60°09' E 024°55'0 0.0
2018-Apr-17 23:59N 60°09' E 024°55'0 0.0
2018-Apr-17 23:29N 60°09' E 024°55'0 0.0
2018-Apr-17 22:59N 60°09' E 024°55'0 0.0
2018-Apr-17 22:29N 60°09' E 024°55'714.0
2018-Apr-17 22:00N 60°02' E 024°54'1223.1
2018-Apr-17 21:31N 59°51' E 024°51'1223.0
2018-Apr-17 21:01N 59°40' E 024°44'1121.3
2018-Apr-17 20:30N 59°29' E 024°46'3 4.7
2018-Apr-17 19:58N 59°27' E 024°46'0 0.0
2018-Apr-17 19:28N 59°27' E 024°46'0 0.0
2018-Apr-17 18:58N 59°27' E 024°46'0 0.0
2018-Apr-17 18:28N 59°27' E 024°46'816.7
2018-Apr-17 18:01N 59°34' E 024°42'1122.4
2018-Apr-17 17:30N 59°45' E 024°44'1223.2
2018-Apr-17 17:00N 59°56' E 024°52'1121.7
2018-Apr-17 16:30N 60°07' E 024°54'2 4.5
2018-Apr-17 15:59N 60°09' E 024°55'0 0.0
2018-Apr-17 15:30N 60°09' E 024°55'714.4
2018-Apr-17 15:00N 60°02' E 024°54'1122.7
2018-Apr-17 14:31N 59°51' E 024°51'1122.7
2018-Apr-17 14:00N 59°40' E 024°44'1021.0
2018-Apr-17 13:31N 59°29' E 024°46'3 5.2
2018-Apr-17 13:00N 59°27' E 024°46'0 0.0
2018-Apr-17 12:30N 59°27' E 024°46'815.8
2018-Apr-17 12:01N 59°34' E 024°42'1121.7
2018-Apr-17 11:30N 59°44' E 024°47'1122.9
2018-Apr-17 11:00N 59°56' E 024°52'1122.0
2018-Apr-17 10:30N 60°07' E 024°54'2 4.6
2018-Apr-17 10:00N 60°09' E 024°55'0 0.0
2018-Apr-17 09:30N 60°09' E 024°55'815.2
2018-Apr-17 09:00N 60°01' E 024°54'1223.1
2018-Apr-17 08:30N 59°50' E 024°53'1123.0
2018-Apr-17 08:01N 59°39' E 024°44'1121.0
2018-Apr-17 07:30N 59°29' E 024°46'2 4.2
2018-Apr-17 07:00N 59°27' E 024°46'0 0.0
2018-Apr-17 06:30N 59°27' E 024°46'715.1
2018-Apr-17 06:00N 59°34' E 024°42'1121.7
2018-Apr-17 05:31N 59°44' E 024°47'1223.3
2018-Apr-17 05:00N 59°56' E 024°52'1121.8
2018-Apr-17 04:30N 60°06' E 024°54'3 4.8
2018-Apr-17 03:59N 60°09' E 024°55'0 0.0
2018-Apr-17 03:28N 60°09' E 024°55'0 0.0
2018-Apr-17 02:58N 60°09' E 024°55'0 0.0
2018-Apr-17 02:28N 60°09' E 024°55'0 0.0
2018-Apr-17 01:58N 60°09' E 024°55'0 0.0
2018-Apr-17 01:28N 60°09' E 024°55'0 0.0
2018-Apr-17 00:59N 60°09' E 024°55'0 0.0
2018-Apr-17 00:29N 60°09' E 024°55'0 0.0
2018-Apr-16 23:59N 60°09' E 024°55'0 0.0
2018-Apr-16 23:29N 60°09' E 024°55'0 0.0
2018-Apr-16 22:59N 60°09' E 024°55'0 0.0
2018-Apr-16 22:28N 60°09' E 024°55'0 0.0
2018-Apr-16 21:58N 60°09' E 024°55'0 0.0
2018-Apr-16 21:29N 60°09' E 024°55'816.1
2018-Apr-16 21:01N 60°01' E 024°54'1224.3
2018-Apr-16 20:31N 59°50' E 024°47'1224.4
2018-Apr-16 20:01N 59°38' E 024°41'1122.4
2018-Apr-16 19:31N 59°27' E 024°47'0 0.6
2018-Apr-16 19:00N 59°27' E 024°46'0 0.0
2018-Apr-16 18:31N 59°27' E 024°46'815.4
2018-Apr-16 18:00N 59°34' E 024°42'1121.5
2018-Apr-16 17:31N 59°44' E 024°47'1122.9
2018-Apr-16 17:00N 59°56' E 024°52'1121.8
2018-Apr-16 16:30N 60°06' E 024°54'3 4.9
2018-Apr-16 15:59N 60°09' E 024°55'0 0.0
2018-Apr-16 15:30N 60°09' E 024°55'713.6
2018-Apr-16 15:01N 60°02' E 024°54'1223.1
2018-Apr-16 14:31N 59°51' E 024°51'1223.0
2018-Apr-16 14:00N 59°40' E 024°44'1121.5
2018-Apr-16 13:31N 59°29' E 024°46'2 4.4
2018-Apr-16 12:58N 59°27' E 024°46'0 0.0
2018-Apr-16 12:28N 59°27' E 024°46'714.5
2018-Apr-16 12:01N 59°33' E 024°42'1121.3
2018-Apr-16 11:31N 59°44' E 024°46'1223.1
2018-Apr-16 11:01N 59°55' E 024°52'1122.2
2018-Apr-16 10:31N 60°06' E 024°54'3 5.8
2018-Apr-16 09:58N 60°09' E 024°55'0 0.0
2018-Apr-16 09:30N 60°09' E 024°55'714.4
2018-Apr-16 09:01N 60°02' E 024°54'1223.5
2018-Apr-16 08:31N 59°50' E 024°49'1223.0
2018-Apr-16 08:00N 59°39' E 024°41'1122.2
2018-Apr-16 07:31N 59°29' E 024°46'2 3.8
2018-Apr-16 07:00N 59°27' E 024°46'0 0.0
2018-Apr-16 06:30N 59°27' E 024°46'714.6
2018-Apr-16 06:01N 59°34' E 024°42'1121.3
2018-Apr-16 05:30N 59°44' E 024°46'1122.7
2018-Apr-16 05:00N 59°55' E 024°52'1122.1
2018-Apr-16 04:31N 60°06' E 024°54'3 5.4
2018-Apr-16 03:58N 60°09' E 024°55'0 0.0
2018-Apr-16 03:28N 60°09' E 024°55'0 0.0
2018-Apr-16 02:58N 60°09' E 024°55'0 0.0
2018-Apr-16 02:28N 60°09' E 024°55'0 0.0
2018-Apr-16 01:58N 60°09' E 024°55'0 0.0
2018-Apr-16 01:28N 60°09' E 024°55'0 0.0
2018-Apr-16 00:58N 60°09' E 024°55'0 0.0
2018-Apr-16 00:28N 60°09' E 024°55'0 0.0
2018-Apr-15 23:58N 60°09' E 024°55'0 0.0
2018-Apr-15 23:28N 60°09' E 024°55'0 0.0
2018-Apr-15 22:58N 60°09' E 024°55'0 0.0
2018-Apr-15 22:28N 60°09' E 024°55'0 0.0
2018-Apr-15 21:58N 60°09' E 024°55'0 0.0
2018-Apr-15 21:30N 60°09' E 024°55'816.6
2018-Apr-15 21:01N 60°01' E 024°54'1223.7
2018-Apr-15 20:31N 59°49' E 024°48'1122.8
2018-Apr-15 20:01N 59°38' E 024°41'1122.2
2018-Apr-15 19:31N 59°28' E 024°47'1 2.1
2018-Apr-15 18:59N 59°27' E 024°46'0 0.0
2018-Apr-15 18:30N 59°27' E 024°46'714.7
2018-Apr-15 18:01N 59°34' E 024°42'1121.2
2018-Apr-15 17:31N 59°44' E 024°47'1122.5
2018-Apr-15 17:00N 59°55' E 024°51'1122.1
2018-Apr-15 16:30N 60°06' E 024°54'3 5.6
2018-Apr-15 15:58N 60°09' E 024°55'0 0.0
2018-Apr-15 15:30N 60°09' E 024°55'713.8
2018-Apr-15 15:00N 60°02' E 024°54'1122.8
2018-Apr-15 14:31N 59°51' E 024°50'1223.2
2018-Apr-15 14:00N 59°40' E 024°44'1121.5
2018-Apr-15 13:31N 59°29' E 024°46'2 4.4
2018-Apr-15 12:58N 59°27' E 024°46'0 0.0
2018-Apr-15 12:29N 59°27' E 024°46'714.9
2018-Apr-15 12:01N 59°33' E 024°42'1122.4
2018-Apr-15 11:31N 59°45' E 024°43'1223.4
2018-Apr-15 11:00N 59°55' E 024°52'1122.0
2018-Apr-15 10:30N 60°06' E 024°54'3 4.6
2018-Apr-15 09:58N 60°09' E 024°55'0 0.0
2018-Apr-15 09:30N 60°09' E 024°55'713.7
2018-Apr-15 09:01N 60°02' E 024°54'1223.3
2018-Apr-15 08:31N 59°51' E 024°50'1223.1
2018-Apr-15 08:01N 59°40' E 024°44'1122.0
2018-Apr-15 07:30N 59°29' E 024°46'2 3.7
2018-Apr-15 06:58N 59°27' E 024°46'0 0.0
2018-Apr-15 06:30N 59°27' E 024°46'714.2
2018-Apr-15 06:01N 59°33' E 024°42'1122.0
2018-Apr-15 05:31N 59°44' E 024°43'1223.0
2018-Apr-15 05:00N 59°55' E 024°52'1122.4
2018-Apr-15 04:30N 60°06' E 024°54'3 5.0
2018-Apr-15 03:58N 60°09' E 024°55'0 0.0
2018-Apr-15 03:28N 60°09' E 024°55'0 0.0
2018-Apr-15 02:58N 60°09' E 024°55'0 0.0
2018-Apr-15 02:28N 60°09' E 024°55'0 0.0
2018-Apr-15 01:58N 60°09' E 024°55'0 0.0
2018-Apr-15 01:28N 60°09' E 024°55'0 0.0
2018-Apr-15 00:55N 60°09' E 024°55'0 0.0
2018-Apr-15 00:28N 60°09' E 024°55'0 0.0
2018-Apr-14 23:58N 60°09' E 024°55'0 0.0
2018-Apr-14 23:28N 60°09' E 024°55'0 0.0
2018-Apr-14 22:58N 60°09' E 024°55'0 0.0
2018-Apr-14 22:28N 60°09' E 024°55'0 0.0
2018-Apr-14 21:58N 60°09' E 024°55'0 0.0
2018-Apr-14 21:30N 60°09' E 024°55'612.5
2018-Apr-14 21:00N 60°03' E 024°54'1223.1
2018-Apr-14 20:31N 59°51' E 024°51'1223.3
2018-Apr-14 20:00N 59°40' E 024°44'1122.0
2018-Apr-14 19:30N 59°29' E 024°46'2 4.7
2018-Apr-14 18:59N 59°27' E 024°46'0 0.0
2018-Apr-14 18:27N 59°27' E 024°46'716.0
2018-Apr-14 18:01N 59°33' E 024°42'1121.6
2018-Apr-14 17:31N 59°44' E 024°47'1223.1
2018-Apr-14 17:00N 59°55' E 024°53'1122.4
2018-Apr-14 16:30N 60°06' E 024°54'3 5.4
2018-Apr-14 16:00N 60°09' E 024°55'0 0.0
2018-Apr-14 15:30N 60°09' E 024°55'612.7
2018-Apr-14 15:00N 60°03' E 024°54'1223.2
2018-Apr-14 14:31N 59°51' E 024°51'1223.1
2018-Apr-14 14:01N 59°40' E 024°44'1121.9
2018-Apr-14 13:31N 59°29' E 024°46'2 4.6
2018-Apr-14 12:58N 59°27' E 024°46'0 0.0
2018-Apr-14 12:29N 59°27' E 024°46'714.7
2018-Apr-14 12:01N 59°33' E 024°42'1223.3
2018-Apr-14 11:31N 59°45' E 024°44'1224.0
2018-Apr-14 11:00N 59°56' E 024°53'1121.2
2018-Apr-14 10:30N 60°07' E 024°54'2 4.3
2018-Apr-14 09:59N 60°09' E 024°55'0 0.0
2018-Apr-14 09:30N 60°09' E 024°55'713.2
2018-Apr-14 09:00N 60°02' E 024°54'1223.3
2018-Apr-14 08:30N 59°51' E 024°51'1223.5
2018-Apr-14 08:01N 59°40' E 024°44'1122.3
2018-Apr-14 07:30N 59°29' E 024°46'2 3.5
2018-Apr-14 06:58N 59°27' E 024°46'0 0.0
2018-Apr-14 06:30N 59°27' E 024°46'713.7
2018-Apr-14 06:01N 59°33' E 024°42'1223.5
2018-Apr-14 05:31N 59°45' E 024°44'1224.2
2018-Apr-14 05:01N 59°56' E 024°53'1122.5
2018-Apr-14 04:31N 60°07' E 024°54'2 3.1
2018-Apr-14 03:59N 60°09' E 024°55'0 0.0
2018-Apr-14 03:29N 60°09' E 024°55'0 0.0
2018-Apr-14 02:59N 60°09' E 024°55'0 0.0
2018-Apr-14 02:29N 60°09' E 024°55'0 0.0
2018-Apr-14 01:59N 60°09' E 024°55'0 0.0
2018-Apr-14 01:29N 60°09' E 024°55'0 0.0
2018-Apr-14 00:59N 60°09' E 024°55'0 0.0
2018-Apr-14 00:29N 60°09' E 024°55'0 0.0
2018-Apr-13 23:59N 60°09' E 024°55'0 0.0
2018-Apr-13 23:29N 60°09' E 024°55'0 0.0
2018-Apr-13 22:59N 60°09' E 024°55'0 0.0
2018-Apr-13 22:29N 60°09' E 024°55'0 0.0
2018-Apr-13 21:59N 60°09' E 024°55'0 0.0
2018-Apr-13 21:30N 60°09' E 024°55'613.0
2018-Apr-13 21:01N 60°02' E 024°54'1123.0
2018-Apr-13 20:31N 59°51' E 024°48'1122.9
2018-Apr-13 20:00N 59°40' E 024°42'1122.8
2018-Apr-13 19:31N 59°29' E 024°46'3 4.8
2018-Apr-13 18:58N 59°27' E 024°46'0 0.0
2018-Apr-13 18:29N 59°27' E 024°46'714.2
2018-Apr-13 18:01N 59°33' E 024°42'1121.9
2018-Apr-13 17:31N 59°44' E 024°47'1223.3
2018-Apr-13 17:00N 59°55' E 024°52'1122.6
2018-Apr-13 16:30N 60°06' E 024°54'3 4.6
2018-Apr-13 15:58N 60°09' E 024°55'0 0.0
2018-Apr-13 15:30N 60°09' E 024°55'612.7
2018-Apr-13 15:00N 60°03' E 024°54'1223.3
2018-Apr-13 14:30N 59°51' E 024°49'2516.2
2018-Apr-13 12:59N 59°27' E 024°46'0 0.0
2018-Apr-13 12:30N 59°27' E 024°46'4020.1
2018-Apr-13 10:30N 60°06' E 024°54'2 4.6
2018-Apr-13 09:58N 60°09' E 024°55'0 0.1
2018-Apr-13 09:26N 60°09' E 024°55'615.2
2018-Apr-13 09:00N 60°02' E 024°54'1224.3
2018-Apr-13 08:30N 59°50' E 024°50'1224.3
2018-Apr-13 08:00N 59°39' E 024°43'1223.1
2018-Apr-13 07:30N 59°27' E 024°47'1 1.6
2018-Apr-13 06:59N 59°27' E 024°46'  

Dump ship's entire track history